createdAt,value
2022-09-07T00:00:44.204Z,12.07
2022-09-07T00:03:11.932Z,11.70
2022-09-07T00:05:43.720Z,12.55
2022-09-07T00:08:11.819Z,10.77
2022-09-07T00:10:39.535Z,13.68
2022-09-07T00:13:07.449Z,10.82
2022-09-07T00:15:39.487Z,13.27
2022-09-07T00:18:07.700Z,12.43
2022-09-07T00:20:35.159Z,14.75
2022-09-07T00:23:02.586Z,14.00
2022-09-07T00:25:32.046Z,13.18
2022-09-07T00:27:59.765Z,13.45
2022-09-07T00:30:27.224Z,14.87
2022-09-07T00:32:54.865Z,13.73
2022-09-07T00:35:22.266Z,12.95
2022-09-07T00:37:49.747Z,12.13
2022-09-07T00:40:17.449Z,12.68
2022-09-07T00:42:44.950Z,15.65
2022-09-07T00:45:20.314Z,11.77
2022-09-07T00:48:03.351Z,9.27
2022-09-07T00:50:34.407Z,11.82
2022-09-07T00:53:08.740Z,13.05
2022-09-07T00:55:37.443Z,11.60
2022-09-07T00:58:06.306Z,12.65
2022-09-07T01:00:34.625Z,15.27
2022-09-07T01:03:02.448Z,12.73
2022-09-07T01:05:39.491Z,13.27
2022-09-07T01:08:07.337Z,15.30
2022-09-07T01:10:35.884Z,13.13
2022-09-07T01:13:03.452Z,11.98
2022-09-07T01:16:14.383Z,14.95
2022-09-07T01:19:06.553Z,12.55
2022-09-07T01:22:03.990Z,11.05
2022-09-07T01:25:09.139Z,10.63
2022-09-07T01:28:06.861Z,10.60
2022-09-07T01:30:39.230Z,10.52
2022-09-07T01:33:09.343Z,12.35
2022-09-07T01:35:53.463Z,10.27
2022-09-07T01:38:35.214Z,10.95
2022-09-07T01:41:07.928Z,10.65
2022-09-07T01:43:54.724Z,10.98
2022-09-07T01:46:29.562Z,14.15
2022-09-07T01:51:42.613Z,11.12
2022-09-07T01:54:28.689Z,11.70
2022-09-07T01:57:01.360Z,11.63
2022-09-07T01:59:52.523Z,12.02
2022-09-07T02:02:31.060Z,10.45
2022-09-07T02:05:11.434Z,13.10
2022-09-07T02:07:43.373Z,12.32
2022-09-07T02:10:15.664Z,15.82
2022-09-07T02:12:49.389Z,9.15
2022-09-07T02:15:22.422Z,12.40
2022-09-07T02:17:52.921Z,9.68
2022-09-07T02:20:28.905Z,12.13
2022-09-07T02:22:59.733Z,11.48
2022-09-07T02:25:30.275Z,10.02
2022-09-07T02:28:03.047Z,9.43
2022-09-07T02:30:30.704Z,10.40
2022-09-07T02:32:58.096Z,11.18
2022-09-07T02:35:25.576Z,10.13
2022-09-07T02:37:53.676Z,10.85
2022-09-07T02:40:21.143Z,12.60
2022-09-07T02:42:50.068Z,12.37
2022-09-07T02:45:18.042Z,14.60
2022-09-07T02:48:11.638Z,14.13
2022-09-07T02:50:58.764Z,13.77
2022-09-07T02:53:44.499Z,14.25
2022-09-07T02:56:39.614Z,14.57
2022-09-07T02:59:12.208Z,11.88
2022-09-07T03:02:01.160Z,13.73
2022-09-07T03:04:43.417Z,10.73
2022-09-07T03:07:14.864Z,12.50
2022-09-07T03:09:48.754Z,12.68
2022-09-07T03:12:17.108Z,11.48
2022-09-07T03:14:44.888Z,9.27
2022-09-07T03:17:13.100Z,12.57
2022-09-07T03:19:40.933Z,13.20
2022-09-07T03:22:08.309Z,12.65
2022-09-07T03:24:36.786Z,11.50
2022-09-07T03:27:04.514Z,11.38
2022-09-07T03:29:31.907Z,12.05
2022-09-07T03:32:00.226Z,11.25
2022-09-07T03:34:27.868Z,13.38
2022-09-07T03:36:55.262Z,15.07
2022-09-07T03:39:23.945Z,13.45
2022-09-07T03:41:51.667Z,13.35
2022-09-07T03:44:19.072Z,15.23
2022-09-07T03:46:46.557Z,15.48
2022-09-07T03:49:15.569Z,15.60
2022-09-07T03:51:43.048Z,13.82
2022-09-07T03:54:10.416Z,17.42
2022-09-07T03:56:38.085Z,16.27
2022-09-07T03:59:05.546Z,16.92
2022-09-07T04:01:32.949Z,17.58
2022-09-07T04:04:03.060Z,14.68
2022-09-07T04:06:30.847Z,12.85
2022-09-07T04:09:05.142Z,21.60
2022-09-07T04:11:32.988Z,16.33
2022-09-07T04:14:00.391Z,16.73
2022-09-07T04:16:28.309Z,14.70
2022-09-07T04:18:56.056Z,16.23
2022-09-07T04:21:24.377Z,15.07
2022-09-07T04:23:52.529Z,15.88
2022-09-07T04:26:22.664Z,17.70
2022-09-07T04:28:51.088Z,19.27
2022-09-07T04:31:19.066Z,18.15
2022-09-07T04:33:48.265Z,22.17
2022-09-07T04:36:17.880Z,17.85
2022-09-07T04:38:45.481Z,22.30
2022-09-07T04:41:15.745Z,19.02
2022-09-07T04:43:43.500Z,21.30
2022-09-07T04:46:21.865Z,23.00
2022-09-07T04:48:50.992Z,23.35
2022-09-07T04:51:18.937Z,20.77
2022-09-07T04:53:49.071Z,20.25
2022-09-07T04:56:17.330Z,20.83
2022-09-07T04:58:45.096Z,15.85
2022-09-07T05:01:14.297Z,17.92
2022-09-07T05:03:42.374Z,18.27
2022-09-07T05:06:10.153Z,19.12
2022-09-07T05:08:39.151Z,17.23
2022-09-07T05:11:06.821Z,16.12
2022-09-07T05:13:34.234Z,17.87
2022-09-07T05:16:08.428Z,16.83
2022-09-07T05:18:36.402Z,18.58
2022-09-07T05:21:17.040Z,19.35
2022-09-07T05:23:45.747Z,23.30
2022-09-07T05:26:13.131Z,22.77
2022-09-07T05:28:40.694Z,18.73
2022-09-07T05:31:19.068Z,20.17
2022-09-07T05:36:36.596Z,21.25
2022-09-07T05:39:05.545Z,19.95
2022-09-07T05:41:32.969Z,17.77
2022-09-07T05:46:48.391Z,18.40
2022-09-07T05:49:16.085Z,18.23
2022-09-07T05:51:43.493Z,21.05
2022-09-07T05:54:12.057Z,19.60
2022-09-07T05:56:39.883Z,17.70
2022-09-07T05:59:07.296Z,16.60
2022-09-07T06:01:35.991Z,15.75
2022-09-07T06:04:03.962Z,12.30
2022-09-07T06:06:31.423Z,13.23
2022-09-07T06:08:59.924Z,13.15
2022-09-07T06:11:27.704Z,12.25
2022-09-07T06:13:55.870Z,10.73
2022-09-07T06:16:23.374Z,11.48
2022-09-07T06:18:51.102Z,10.23
2022-09-07T06:21:23.489Z,13.45
2022-09-07T06:23:51.537Z,12.70
2022-09-07T06:26:19.840Z,11.82
2022-09-07T06:28:49.862Z,11.80
2022-09-07T06:31:20.355Z,14.68
2022-09-07T06:33:48.695Z,12.05
2022-09-07T06:36:20.961Z,10.90
2022-09-07T06:38:49.768Z,11.75
2022-09-07T06:44:07.931Z,10.40
2022-09-07T06:49:23.746Z,11.30
2022-09-07T06:51:51.509Z,10.50
2022-09-07T06:57:09.327Z,14.75
2022-09-07T06:59:37.866Z,15.85
2022-09-07T07:02:06.723Z,11.20
2022-09-07T07:04:40.222Z,13.75
2022-09-07T07:07:14.603Z,10.52
2022-09-07T07:09:42.533Z,10.68
2022-09-07T07:12:10.720Z,10.10
2022-09-07T07:14:40.949Z,11.57
2022-09-07T07:17:10.390Z,10.85
2022-09-07T07:19:37.813Z,9.52
2022-09-07T07:22:29.179Z,10.90
2022-09-07T07:24:53.497Z,12.10
2022-09-07T07:27:22.049Z,9.80
2022-09-07T07:29:49.769Z,16.17
2022-09-07T07:32:17.476Z,11.95
2022-09-07T07:34:44.872Z,11.68
2022-09-07T07:37:12.251Z,11.07
2022-09-07T07:42:27.476Z,14.18
2022-09-07T07:47:42.805Z,17.58
2022-09-07T07:55:45.679Z,9.77
2022-09-07T07:58:13.120Z,12.05
2022-09-07T08:00:56.656Z,10.98
2022-09-07T08:03:25.484Z,14.15
2022-09-07T08:05:54.338Z,10.90
2022-09-07T08:08:23.314Z,12.15
2022-09-07T08:10:51.578Z,9.77
2022-09-07T08:13:19.313Z,12.30
2022-09-07T08:15:47.180Z,7.30
2022-09-07T08:18:17.010Z,17.02
2022-09-07T08:20:44.780Z,9.65
2022-09-07T08:23:12.250Z,12.65
2022-09-07T08:25:49.361Z,10.55
2022-09-07T08:28:16.732Z,10.68
2022-09-07T08:30:44.482Z,7.95
2022-09-07T08:33:12.030Z,7.18
2022-09-07T08:35:39.436Z,8.38
2022-09-07T08:38:07.165Z,10.27
2022-09-07T08:40:38.387Z,7.30
2022-09-07T08:43:20.148Z,10.20
2022-09-07T08:45:51.455Z,11.15
2022-09-07T08:48:29.621Z,9.10
2022-09-07T08:51:05.490Z,8.25
2022-09-07T08:53:35.653Z,12.25
2022-09-07T08:56:10.249Z,9.23
2022-09-07T08:58:51.285Z,7.00
2022-09-07T09:01:37.059Z,9.52
2022-09-07T09:04:17.842Z,13.18
2022-09-07T09:07:24.188Z,8.85
2022-09-07T09:10:16.764Z,7.68
2022-09-07T09:12:56.637Z,7.30
2022-09-07T09:15:48.160Z,9.35
2022-09-07T09:18:51.191Z,12.73
2022-09-07T09:21:19.495Z,11.48
2022-09-07T09:23:49.207Z,8.65
2022-09-07T09:26:25.667Z,9.40
2022-09-07T09:28:53.775Z,9.23
2022-09-07T09:31:23.675Z,10.32
2022-09-07T09:34:13.314Z,8.73
2022-09-07T09:36:50.082Z,7.40
2022-09-07T09:39:26.688Z,7.93
2022-09-07T09:41:56.810Z,8.57
2022-09-07T09:44:26.582Z,9.00
2022-09-07T09:49:45.167Z,9.40
2022-09-07T09:52:39.090Z,10.02
2022-09-07T10:04:01.151Z,10.52
2022-09-07T10:06:30.871Z,8.13
2022-09-07T10:09:00.608Z,13.00
2022-09-07T10:14:36.870Z,6.85
2022-09-07T10:17:13.120Z,15.13
2022-09-07T10:19:42.500Z,8.35
2022-09-07T10:22:40.392Z,9.18
2022-09-07T10:25:33.023Z,8.55
2022-09-07T10:28:03.687Z,8.15
2022-09-07T10:30:39.838Z,13.75
2022-09-07T10:33:24.738Z,9.05
2022-09-07T10:36:00.604Z,7.30
2022-09-07T10:38:29.336Z,16.05
2022-09-07T10:41:04.302Z,7.55
2022-09-07T10:43:39.977Z,8.82
2022-09-07T10:49:25.417Z,11.38
2022-09-07T10:52:37.803Z,7.97
2022-09-07T10:55:20.699Z,7.53
2022-09-07T10:57:53.993Z,8.45
2022-09-07T11:00:22.706Z,14.38
2022-09-07T11:06:05.814Z,9.55
2022-09-07T11:09:16.213Z,10.63
2022-09-07T11:12:03.832Z,9.40
2022-09-07T11:14:43.040Z,10.48
2022-09-07T11:17:16.630Z,11.93
2022-09-07T11:22:28.152Z,13.45
2022-09-07T11:27:56.230Z,13.43
2022-09-07T11:30:28.251Z,13.15
2022-09-07T11:33:02.235Z,15.23
2022-09-07T11:35:45.439Z,15.07
2022-09-07T11:38:34.450Z,14.65
2022-09-07T11:41:17.453Z,15.10
2022-09-07T11:44:03.421Z,14.57
2022-09-07T11:47:14.446Z,15.15
2022-09-07T11:49:41.841Z,13.62
2022-09-07T11:52:28.016Z,15.98
2022-09-07T11:54:57.761Z,14.85
2022-09-07T11:57:38.878Z,14.45
2022-09-07T12:00:13.138Z,15.27
2022-09-07T12:02:59.902Z,16.27
2022-09-07T12:05:41.637Z,16.25
2022-09-07T12:08:35.262Z,17.37
2022-09-07T12:11:27.507Z,15.45
2022-09-07T12:14:16.145Z,17.70
2022-09-07T12:16:52.624Z,16.00
2022-09-07T12:19:23.563Z,15.88
2022-09-07T12:21:53.906Z,15.93
2022-09-07T12:24:39.753Z,15.32
2022-09-07T12:27:22.040Z,16.58
2022-09-07T12:29:59.523Z,15.40
2022-09-07T12:32:54.897Z,16.67
2022-09-07T12:35:26.641Z,15.50
2022-09-07T12:38:18.998Z,14.98
2022-09-07T12:40:49.728Z,15.35
2022-09-07T12:43:17.116Z,15.48
2022-09-07T12:45:52.303Z,16.77
2022-09-07T12:48:19.844Z,16.20
2022-09-07T12:51:08.010Z,16.33
2022-09-07T12:54:07.090Z,15.38
2022-09-07T12:57:29.057Z,15.13
2022-09-07T13:00:07.249Z,14.77
2022-09-07T13:06:08.511Z,13.98
2022-09-07T13:08:49.161Z,13.13
2022-09-07T13:11:19.961Z,14.57
2022-09-07T13:14:05.008Z,13.52
2022-09-07T13:19:51.075Z,13.82
2022-09-07T13:22:30.831Z,14.18
2022-09-07T13:24:59.916Z,13.32
2022-09-07T13:27:53.496Z,13.43
2022-09-07T13:30:37.644Z,13.85
2022-09-07T13:35:52.982Z,13.20
2022-09-07T13:38:21.552Z,12.23
2022-09-07T13:40:52.160Z,11.77
2022-09-07T13:43:23.931Z,13.35
2022-09-07T13:45:54.652Z,12.20
2022-09-07T13:48:25.166Z,10.38
2022-09-07T13:51:13.216Z,9.48
2022-09-07T13:53:56.261Z,9.05
2022-09-07T13:56:37.794Z,10.15
2022-09-07T13:59:25.991Z,9.73
2022-09-07T14:01:54.073Z,10.43
2022-09-07T14:04:46.754Z,12.40
2022-09-07T14:07:16.755Z,10.60
2022-09-07T14:09:44.422Z,12.18
2022-09-07T14:12:16.907Z,10.48
2022-09-07T14:14:44.684Z,11.88
2022-09-07T14:17:17.953Z,11.57
2022-09-07T14:19:50.272Z,11.23
2022-09-07T14:22:23.422Z,12.02
2022-09-07T14:24:53.505Z,14.65
2022-09-07T14:27:38.491Z,12.50
2022-09-07T14:30:28.327Z,12.82
2022-09-07T14:32:59.901Z,12.70
2022-09-07T14:35:33.558Z,12.45
2022-09-07T14:41:14.521Z,12.57
2022-09-07T14:43:56.209Z,12.48
2022-09-07T14:46:28.539Z,13.40
2022-09-07T14:48:57.308Z,13.62
2022-09-07T14:51:35.287Z,14.35
2022-09-07T14:54:06.410Z,13.05
2022-09-07T14:56:41.268Z,13.95
2022-09-07T14:59:41.260Z,13.70
2022-09-07T15:02:17.866Z,12.60
2022-09-07T15:04:50.236Z,12.98
2022-09-07T15:07:41.662Z,14.38
2022-09-07T15:10:21.095Z,12.43
2022-09-07T15:12:54.274Z,14.75
2022-09-07T15:15:26.248Z,13.40
2022-09-07T15:17:59.000Z,12.65
2022-09-07T15:20:48.313Z,14.27
2022-09-07T15:23:17.541Z,15.20
2022-09-07T15:25:50.885Z,17.73
2022-09-07T15:34:03.478Z,17.27
2022-09-07T15:36:32.098Z,15.45
2022-09-07T15:39:00.300Z,18.25
2022-09-07T15:41:29.259Z,17.25
2022-09-07T15:43:57.087Z,17.33
2022-09-07T15:46:25.018Z,19.30
2022-09-07T15:48:55.038Z,18.67
2022-09-07T15:54:14.010Z,29.55
2022-09-07T15:56:43.634Z,16.83
2022-09-07T15:59:12.034Z,18.45
2022-09-07T16:01:56.016Z,17.00
2022-09-07T16:04:24.371Z,17.48
2022-09-07T16:06:51.839Z,16.58
2022-09-07T16:09:21.758Z,16.15
2022-09-07T16:11:51.301Z,16.17
2022-09-07T16:14:18.829Z,16.52
2022-09-07T16:19:35.259Z,16.83
2022-09-07T16:22:03.885Z,17.17
2022-09-07T16:24:31.270Z,15.75
2022-09-07T16:26:58.970Z,16.42
2022-09-07T16:29:26.403Z,15.73
2022-09-07T16:34:41.441Z,17.98
2022-09-07T16:37:08.802Z,16.75
2022-09-07T16:39:36.365Z,17.37
2022-09-07T16:42:04.179Z,15.85
2022-09-07T16:44:31.914Z,15.88
2022-09-07T16:46:59.855Z,16.75
2022-09-07T16:49:28.826Z,17.02
2022-09-07T16:51:56.202Z,16.08
2022-09-07T16:54:23.562Z,16.20
2022-09-07T16:56:52.654Z,17.70
2022-09-07T16:59:25.527Z,17.33
2022-09-07T17:01:53.422Z,20.67
2022-09-07T17:04:20.923Z,21.83
2022-09-07T17:06:48.359Z,16.23
2022-09-07T17:09:16.016Z,17.67
2022-09-07T17:11:43.366Z,18.05
2022-09-07T17:14:10.720Z,20.00
2022-09-07T17:16:40.369Z,18.83
2022-09-07T17:21:59.781Z,17.08
2022-09-07T17:24:27.267Z,16.67
2022-09-07T17:26:54.749Z,21.08
2022-09-07T17:29:22.670Z,19.67
2022-09-07T17:34:37.846Z,18.08
2022-09-07T17:37:05.299Z,25.33
2022-09-07T17:39:32.690Z,22.30
2022-09-07T17:42:01.112Z,23.20
2022-09-07T17:44:33.250Z,20.37
2022-09-07T17:47:03.587Z,24.15
2022-09-07T17:49:31.005Z,25.95
2022-09-07T17:51:59.996Z,22.90
2022-09-07T17:54:27.913Z,21.58
2022-09-07T17:56:55.529Z,26.73
2022-09-07T18:02:13.740Z,24.77
2022-09-07T18:04:42.012Z,23.38
2022-09-07T18:07:09.805Z,25.00
2022-09-07T18:09:38.637Z,25.62
2022-09-07T18:12:06.825Z,24.70
2022-09-07T18:14:34.665Z,26.33
2022-09-07T18:17:02.425Z,32.65
2022-09-07T18:19:30.361Z,29.37
2022-09-07T18:21:58.078Z,27.65
2022-09-07T18:24:25.881Z,30.50
2022-09-07T18:26:54.415Z,27.60
2022-09-07T18:29:30.077Z,27.55
2022-09-07T18:32:02.795Z,28.33
2022-09-07T18:34:31.956Z,29.10
2022-09-07T18:37:00.943Z,26.58
2022-09-07T18:39:28.854Z,28.58
2022-09-07T18:41:57.124Z,29.02
2022-09-07T18:47:23.188Z,32.67
2022-09-07T18:49:55.476Z,29.73
2022-09-07T18:55:12.134Z,29.67
2022-09-07T18:57:39.874Z,31.67
2022-09-07T19:00:09.171Z,30.75
2022-09-07T19:02:37.669Z,32.75
2022-09-07T19:07:53.970Z,32.33
2022-09-07T19:10:21.806Z,31.73
2022-09-07T19:12:49.559Z,31.87
2022-09-07T19:15:17.695Z,31.37
2022-09-07T19:17:45.516Z,32.85
2022-09-07T19:20:13.453Z,30.75
2022-09-07T19:22:43.172Z,28.70
2022-09-07T19:25:11.016Z,28.92
2022-09-07T19:27:38.957Z,29.98
2022-09-07T19:30:07.517Z,31.83
2022-09-07T19:32:35.326Z,29.75
2022-09-07T19:35:03.165Z,29.12
2022-09-07T19:37:33.106Z,30.17
2022-09-07T19:40:01.903Z,28.38
2022-09-07T19:42:30.044Z,28.08
2022-09-07T19:44:58.938Z,27.25
2022-09-07T19:47:26.698Z,29.60
2022-09-07T19:49:54.531Z,28.58
2022-09-07T19:52:22.655Z,28.17
2022-09-07T19:54:50.486Z,30.23
2022-09-07T19:57:18.310Z,33.45
2022-09-07T19:59:47.596Z,35.40
2022-09-07T20:02:15.426Z,30.45
2022-09-07T20:04:43.505Z,31.05
2022-09-07T20:07:12.645Z,28.98
2022-09-07T20:09:40.314Z,27.87
2022-09-07T20:12:09.044Z,27.77
2022-09-07T20:14:37.176Z,29.15
2022-09-07T20:17:04.989Z,28.33
2022-09-07T20:19:32.914Z,27.98
2022-09-07T20:22:00.673Z,29.75
2022-09-07T20:24:28.211Z,28.17
2022-09-07T20:26:56.050Z,28.92
2022-09-07T20:29:28.592Z,24.58
2022-09-07T20:32:01.162Z,27.58
2022-09-07T20:34:29.106Z,26.95
2022-09-07T20:36:57.029Z,26.42
2022-09-07T20:39:24.850Z,22.15
2022-09-07T20:41:52.196Z,26.25
2022-09-07T20:44:19.858Z,22.83
2022-09-07T20:46:47.347Z,24.35
2022-09-07T20:49:14.812Z,26.87
2022-09-07T20:51:42.478Z,25.98
2022-09-07T20:54:10.192Z,28.48
2022-09-07T20:56:37.537Z,27.67
2022-09-07T20:59:05.349Z,30.65
2022-09-07T21:01:33.211Z,30.17
2022-09-07T21:04:01.242Z,30.62
2022-09-07T21:06:29.865Z,29.90
2022-09-07T21:08:57.850Z,30.17
2022-09-07T21:11:27.541Z,32.03
2022-09-07T21:13:57.219Z,29.90
2022-09-07T21:16:24.771Z,30.35
2022-09-07T21:18:56.841Z,30.25
2022-09-07T21:21:26.607Z,32.45
2022-09-07T21:24:01.048Z,30.23
2022-09-07T21:26:28.818Z,32.00
2022-09-07T21:28:57.245Z,30.67
2022-09-07T21:31:25.429Z,30.48
2022-09-07T21:33:55.182Z,32.97
2022-09-07T21:36:23.000Z,31.40
2022-09-07T21:38:50.801Z,29.87
2022-09-07T21:41:19.725Z,29.87
2022-09-07T21:43:47.609Z,29.48
2022-09-07T21:46:17.436Z,30.73
2022-09-07T21:48:46.119Z,30.37
2022-09-07T21:51:14.320Z,29.83
2022-09-07T21:53:42.561Z,29.55
2022-09-07T21:56:12.605Z,28.95
2022-09-07T21:58:40.422Z,29.92
2022-09-07T22:01:13.794Z,29.67
2022-09-07T22:03:41.777Z,30.60
2022-09-07T22:06:10.589Z,30.27
2022-09-07T22:08:39.849Z,31.40
2022-09-07T22:11:13.067Z,31.33
2022-09-07T22:13:40.930Z,31.35
2022-09-07T22:16:09.479Z,31.75
2022-09-07T22:18:37.980Z,32.38
2022-09-07T22:21:06.369Z,31.12
2022-09-07T22:23:35.756Z,32.53
2022-09-07T22:26:03.159Z,32.38
2022-09-07T22:28:30.579Z,31.00
2022-09-07T22:31:12.396Z,31.17
2022-09-07T22:33:41.199Z,32.53
2022-09-07T22:36:20.058Z,31.65
2022-09-07T22:38:49.657Z,31.65
2022-09-07T22:41:20.337Z,30.77
2022-09-07T22:43:48.143Z,31.65
2022-09-07T22:46:15.573Z,30.45
2022-09-07T22:48:43.904Z,30.95
2022-09-07T22:51:11.880Z,31.62
2022-09-07T22:53:41.405Z,31.85
2022-09-07T22:56:18.604Z,30.05
2022-09-07T22:58:56.749Z,30.90
2022-09-07T23:01:25.289Z,30.23
2022-09-07T23:03:53.434Z,30.00
2022-09-07T23:06:23.910Z,30.65
2022-09-07T23:08:52.142Z,30.58
2022-09-07T23:11:20.145Z,29.80
2022-09-07T23:13:55.130Z,31.92
2022-09-07T23:16:23.246Z,29.75
2022-09-07T23:18:51.024Z,29.95
2022-09-07T23:21:18.747Z,32.08
2022-09-07T23:23:51.389Z,29.90
2022-09-07T23:26:20.279Z,31.62
2022-09-07T23:28:55.704Z,29.60
2022-09-07T23:31:23.693Z,31.37
2022-09-07T23:33:52.079Z,28.73
2022-09-07T23:36:19.612Z,30.08
2022-09-07T23:38:48.688Z,30.60
2022-09-07T23:41:19.838Z,27.10
2022-09-07T23:43:48.361Z,27.60
2022-09-07T23:46:16.260Z,29.70
2022-09-07T23:48:44.592Z,29.08
2022-09-07T23:51:12.677Z,29.12
2022-09-07T23:53:40.973Z,27.67
2022-09-07T23:56:08.340Z,26.87
2022-09-07T23:58:35.791Z,28.65
